Glacier, Washington
Current Conditions -  °F | °C
As of 10:00 AM on Wednesday 26 Nov 2014 (Local Time) from CYXX Reporting Station
Haze Haze  
Wind Chill: 39°   Ceiling: 2500
Heat Index: 43°   Visibility: 5mi
Dew Point: 43°   Wind: 6mph
Humidity: 100%   Direction: 80°E
Pressure: 30.07"   Gusts: NA
Location:  48.8512°N, 121.903°W
Report Text: CYXX 261800Z 08005KT 020V100 5SM BR FEW003 BKN025 OVC060 06/06 A3007 RMK SF1SC6SC1 VIS S 10 SLP184
Loading
Personal Weather Stations






























Interactive Weather Map New forecast layout! Learn more

10-Day Weather Forecast

Advertisements
Track Severe Weather on mobile